createdAt,value
2023-03-06T00:00:53.670Z,9.60
2023-03-06T00:03:24.049Z,9.38
2023-03-06T00:05:50.761Z,9.43
2023-03-06T00:08:20.188Z,9.30
2023-03-06T00:10:49.028Z,9.82
2023-03-06T00:13:23.593Z,11.15
2023-03-06T00:15:59.706Z,10.55
2023-03-06T00:18:28.712Z,10.85
2023-03-06T00:20:59.833Z,10.18
2023-03-06T00:23:27.385Z,11.50
2023-03-06T00:25:54.001Z,10.52
2023-03-06T00:28:20.600Z,11.60
2023-03-06T00:30:49.330Z,11.05
2023-03-06T00:33:16.209Z,11.77
2023-03-06T00:35:45.473Z,11.77
2023-03-06T00:38:15.229Z,12.23
2023-03-06T00:40:41.798Z,11.48
2023-03-06T00:43:16.843Z,11.38
2023-03-06T00:45:43.446Z,12.32
2023-03-06T00:48:24.620Z,12.05
2023-03-06T00:50:51.930Z,12.70
2023-03-06T00:53:19.325Z,12.13
2023-03-06T00:55:46.020Z,12.02
2023-03-06T00:58:15.534Z,12.95
2023-03-06T01:00:42.303Z,12.68
2023-03-06T01:03:12.502Z,12.80
2023-03-06T01:05:45.905Z,12.55
2023-03-06T01:08:16.091Z,12.77
2023-03-06T01:10:45.173Z,12.52
2023-03-06T01:13:13.794Z,12.90
2023-03-06T01:15:40.570Z,12.55
2023-03-06T01:18:09.378Z,13.80
2023-03-06T01:20:39.455Z,13.80
2023-03-06T01:23:07.409Z,13.25
2023-03-06T01:25:36.161Z,14.38
2023-03-06T01:28:05.021Z,13.88
2023-03-06T01:30:40.073Z,14.48
2023-03-06T01:33:11.522Z,14.55
2023-03-06T01:35:41.742Z,13.50
2023-03-06T01:38:11.629Z,16.75
2023-03-06T01:40:38.777Z,16.10
2023-03-06T01:43:23.862Z,15.48
2023-03-06T01:45:57.043Z,15.65
2023-03-06T01:48:26.668Z,15.55
2023-03-06T01:50:59.143Z,16.05
2023-03-06T01:53:28.238Z,14.85
2023-03-06T01:55:55.283Z,14.75
2023-03-06T01:58:26.365Z,15.25
2023-03-06T02:00:53.203Z,15.65
2023-03-06T02:03:25.107Z,15.90
2023-03-06T02:05:59.917Z,15.05
2023-03-06T02:08:31.356Z,14.77
2023-03-06T02:11:22.093Z,15.15
2023-03-06T02:13:53.340Z,15.55
2023-03-06T02:16:26.687Z,16.40
2023-03-06T02:19:03.898Z,17.65
2023-03-06T02:21:37.246Z,18.33
2023-03-06T02:24:36.194Z,17.05
2023-03-06T02:27:07.318Z,17.77
2023-03-06T02:29:35.525Z,16.60
2023-03-06T02:32:13.771Z,16.85
2023-03-06T02:34:40.327Z,17.13
2023-03-06T02:37:09.230Z,16.02
2023-03-06T02:39:44.042Z,15.73
2023-03-06T02:42:19.001Z,16.00
2023-03-06T02:44:47.768Z,15.55
2023-03-06T02:47:17.135Z,14.63
2023-03-06T02:49:47.987Z,15.45
2023-03-06T02:52:14.685Z,16.25
2023-03-06T02:54:42.385Z,15.82
2023-03-06T02:57:12.151Z,15.77
2023-03-06T02:59:41.255Z,15.73
2023-03-06T03:02:09.492Z,18.00
2023-03-06T03:04:38.731Z,16.52
2023-03-06T03:07:08.810Z,17.77
2023-03-06T03:09:39.784Z,17.90
2023-03-06T03:12:07.019Z,19.23
2023-03-06T03:14:35.759Z,20.05
2023-03-06T03:17:04.909Z,18.58
2023-03-06T03:19:35.923Z,20.35
2023-03-06T03:22:02.686Z,19.48
2023-03-06T03:24:29.264Z,22.27
2023-03-06T03:27:02.037Z,22.10
2023-03-06T03:29:28.871Z,23.05
2023-03-06T03:31:58.928Z,22.48
2023-03-06T03:34:29.207Z,22.15
2023-03-06T03:36:58.108Z,20.77
2023-03-06T03:39:26.899Z,20.88
2023-03-06T03:42:00.131Z,21.40
2023-03-06T03:44:27.794Z,20.33
2023-03-06T03:46:59.822Z,19.80
2023-03-06T03:49:26.529Z,20.83
2023-03-06T03:51:57.285Z,20.13
2023-03-06T03:54:29.588Z,21.08
2023-03-06T03:56:56.775Z,19.90
2023-03-06T03:59:36.630Z,20.75
2023-03-06T04:02:15.770Z,20.95
2023-03-06T04:04:55.729Z,19.30
2023-03-06T04:07:25.357Z,19.60
2023-03-06T04:09:54.247Z,19.42
2023-03-06T04:12:21.892Z,19.42
2023-03-06T04:14:48.498Z,20.08
2023-03-06T04:17:16.427Z,21.02
2023-03-06T04:19:47.655Z,20.13
2023-03-06T04:22:14.433Z,20.42
2023-03-06T04:24:43.244Z,19.95
2023-03-06T04:27:09.915Z,18.77
2023-03-06T04:29:36.579Z,17.52
2023-03-06T04:32:12.276Z,18.60
2023-03-06T04:34:39.692Z,18.23
2023-03-06T04:37:06.814Z,18.17
2023-03-06T04:39:38.090Z,18.50
2023-03-06T04:42:07.348Z,15.15
2023-03-06T04:44:36.574Z,15.55
2023-03-06T04:47:03.441Z,14.57
2023-03-06T04:49:30.337Z,15.60
2023-03-06T04:51:57.967Z,14.95
2023-03-06T04:54:28.805Z,14.63
2023-03-06T04:56:55.607Z,15.82
2023-03-06T04:59:22.166Z,15.48
2023-03-06T05:01:48.783Z,15.50
2023-03-06T05:04:15.396Z,17.42
2023-03-06T05:06:46.202Z,16.83
2023-03-06T05:09:17.096Z,17.38
2023-03-06T05:11:46.581Z,17.35
2023-03-06T05:14:20.694Z,17.02
2023-03-06T05:16:53.536Z,18.17
2023-03-06T05:19:20.133Z,16.05
2023-03-06T05:21:48.193Z,16.52
2023-03-06T05:24:14.937Z,16.23
2023-03-06T05:26:47.200Z,16.83
2023-03-06T05:31:42.822Z,14.27
2023-03-06T05:34:13.774Z,15.00
2023-03-06T05:36:42.848Z,15.65
2023-03-06T05:39:09.741Z,15.95
2023-03-06T05:41:36.278Z,16.40
2023-03-06T05:44:13.150Z,15.65
2023-03-06T05:46:42.089Z,16.52
2023-03-06T05:49:11.598Z,15.85
2023-03-06T05:51:41.780Z,16.00
2023-03-06T05:54:10.732Z,17.60
2023-03-06T05:56:40.284Z,15.93
2023-03-06T05:59:15.899Z,17.10
2023-03-06T06:01:42.445Z,15.18
2023-03-06T06:04:11.398Z,16.05
2023-03-06T06:06:45.103Z,15.93
2023-03-06T06:09:16.971Z,16.50
2023-03-06T06:11:47.500Z,17.42
2023-03-06T06:14:14.684Z,17.15
2023-03-06T06:16:47.397Z,17.75
2023-03-06T06:19:20.398Z,18.75
2023-03-06T06:21:52.814Z,18.48
2023-03-06T06:24:24.089Z,19.30
2023-03-06T06:26:55.080Z,22.85
2023-03-06T06:29:24.437Z,26.05
2023-03-06T06:32:03.229Z,23.88
2023-03-06T06:34:32.247Z,26.35
2023-03-06T06:37:07.722Z,24.40
2023-03-06T06:39:34.266Z,25.90
2023-03-06T06:42:25.931Z,25.73
2023-03-06T06:44:51.295Z,26.13
2023-03-06T06:47:22.946Z,26.10
2023-03-06T06:49:54.451Z,27.35
2023-03-06T06:52:33.712Z,28.02
2023-03-06T06:55:02.821Z,27.05
2023-03-06T06:57:29.431Z,25.55
2023-03-06T06:59:58.411Z,27.55
2023-03-06T07:02:27.591Z,24.70
2023-03-06T07:05:04.305Z,24.73
2023-03-06T07:07:37.330Z,23.77
2023-03-06T07:10:15.445Z,22.75
2023-03-06T07:12:42.623Z,23.25
2023-03-06T07:15:11.871Z,23.48
2023-03-06T07:17:47.718Z,21.25
2023-03-06T07:20:16.298Z,24.30
2023-03-06T07:22:50.689Z,23.60
2023-03-06T07:25:23.392Z,24.15
2023-03-06T07:27:54.643Z,23.92
2023-03-06T07:30:28.010Z,25.88
2023-03-06T07:32:58.794Z,25.23
2023-03-06T07:35:26.040Z,22.98
2023-03-06T07:37:55.128Z,27.13
2023-03-06T07:40:24.492Z,24.25
2023-03-06T07:43:06.106Z,23.75
2023-03-06T07:45:44.511Z,23.98
2023-03-06T07:48:22.214Z,24.20
2023-03-06T07:51:03.922Z,23.70
2023-03-06T07:53:42.178Z,26.35
2023-03-06T07:56:09.440Z,24.98
2023-03-06T07:58:38.117Z,24.48
2023-03-06T08:01:10.338Z,26.83
2023-03-06T08:03:37.417Z,26.17
2023-03-06T08:06:27.526Z,26.33
2023-03-06T08:09:03.083Z,25.23
2023-03-06T08:11:38.610Z,25.70
2023-03-06T08:14:06.471Z,25.67
2023-03-06T08:16:33.125Z,25.83
2023-03-06T08:19:01.870Z,26.23
2023-03-06T08:21:28.672Z,26.67
2023-03-06T08:23:55.750Z,28.00
2023-03-06T08:26:24.929Z,26.80
2023-03-06T08:29:04.161Z,25.88
2023-03-06T08:31:40.362Z,26.85
2023-03-06T08:34:11.340Z,25.95
2023-03-06T08:36:40.447Z,27.27
2023-03-06T08:39:08.033Z,27.25
2023-03-06T08:41:35.469Z,26.67
2023-03-06T08:44:06.773Z,26.35
2023-03-06T08:46:34.517Z,26.55
2023-03-06T08:49:05.664Z,27.08
2023-03-06T08:51:33.721Z,24.10
2023-03-06T08:54:00.422Z,24.40
2023-03-06T08:56:30.071Z,22.60
2023-03-06T08:59:00.587Z,22.52
2023-03-06T09:01:29.777Z,22.38
2023-03-06T09:04:01.824Z,23.35
2023-03-06T09:06:39.387Z,24.13
2023-03-06T09:09:09.394Z,22.85
2023-03-06T09:11:41.638Z,23.42
2023-03-06T09:14:08.233Z,24.70
2023-03-06T09:16:38.097Z,23.40
2023-03-06T09:19:04.709Z,22.52
2023-03-06T09:21:34.022Z,24.30
2023-03-06T09:24:03.240Z,22.27
2023-03-06T09:26:45.107Z,23.23
2023-03-06T09:29:13.282Z,22.60
2023-03-06T09:31:41.097Z,23.50
2023-03-06T09:34:11.956Z,22.58
2023-03-06T09:36:54.989Z,21.23
2023-03-06T09:39:23.881Z,22.63
2023-03-06T09:41:56.619Z,23.52
2023-03-06T09:44:26.066Z,23.25
2023-03-06T09:47:10.540Z,21.70
2023-03-06T09:50:10.902Z,21.38
2023-03-06T09:53:02.607Z,21.45
2023-03-06T09:55:37.318Z,21.23
2023-03-06T09:58:25.235Z,20.80
2023-03-06T10:01:11.011Z,21.63
2023-03-06T10:03:49.348Z,21.08
2023-03-06T10:06:31.229Z,21.33
2023-03-06T10:09:18.490Z,21.92
2023-03-06T10:12:16.089Z,22.42
2023-03-06T10:14:57.796Z,21.55
2023-03-06T10:17:29.113Z,22.80
2023-03-06T10:19:57.991Z,21.67
2023-03-06T10:22:36.591Z,22.42
2023-03-06T10:25:27.741Z,21.50
2023-03-06T10:28:05.304Z,22.23
2023-03-06T10:31:00.452Z,23.65
2023-03-06T10:33:48.346Z,21.05
2023-03-06T10:36:19.561Z,21.20
2023-03-06T10:38:48.421Z,21.67
2023-03-06T10:41:38.075Z,21.92
2023-03-06T10:44:04.686Z,20.80
2023-03-06T10:46:45.229Z,20.95
2023-03-06T10:49:34.468Z,22.10
2023-03-06T10:52:22.625Z,20.88
2023-03-06T10:54:50.639Z,21.08
2023-03-06T10:57:24.108Z,21.63
2023-03-06T10:59:56.431Z,21.05
2023-03-06T11:02:31.304Z,21.00
2023-03-06T11:05:01.391Z,18.88
2023-03-06T11:07:36.873Z,17.55
2023-03-06T11:10:17.928Z,17.23
2023-03-06T11:13:01.247Z,17.23
2023-03-06T11:15:29.369Z,18.27
2023-03-06T11:18:04.320Z,17.10
2023-03-06T11:20:52.385Z,17.15
2023-03-06T11:23:40.543Z,15.82
2023-03-06T11:26:19.515Z,17.00
2023-03-06T11:29:01.352Z,18.52
2023-03-06T11:31:39.310Z,18.75
2023-03-06T11:34:18.442Z,19.30
2023-03-06T11:36:54.476Z,19.33
2023-03-06T11:39:36.238Z,17.50
2023-03-06T11:42:29.363Z,13.20
2023-03-06T11:45:30.753Z,18.13
2023-03-06T11:48:15.825Z,19.23
2023-03-06T11:50:48.506Z,18.20
2023-03-06T11:53:19.747Z,17.95
2023-03-06T11:56:10.828Z,16.92
2023-03-06T11:59:21.919Z,16.52
2023-03-06T12:02:21.484Z,16.08
2023-03-06T12:05:21.015Z,16.70
2023-03-06T12:08:17.300Z,16.38
2023-03-06T12:10:51.536Z,16.35
2023-03-06T12:13:43.103Z,17.40
2023-03-06T12:16:29.628Z,16.08
2023-03-06T12:19:25.960Z,16.27
2023-03-06T12:22:01.574Z,17.98
2023-03-06T12:25:07.635Z,18.60
2023-03-06T12:27:52.793Z,18.98
2023-03-06T12:30:51.643Z,17.80
2023-03-06T12:33:37.074Z,16.77
2023-03-06T12:36:33.290Z,18.63
2023-03-06T12:39:22.503Z,18.75
2023-03-06T12:42:23.236Z,18.98
2023-03-06T12:45:10.809Z,19.15
2023-03-06T12:47:44.239Z,17.08
2023-03-06T12:50:45.975Z,15.20
2023-03-06T12:53:28.500Z,14.05
2023-03-06T12:58:33.214Z,14.40
2023-03-06T13:01:39.060Z,14.55
2023-03-06T13:04:29.429Z,15.15
2023-03-06T13:07:14.738Z,15.18
2023-03-06T13:10:15.439Z,16.85
2023-03-06T13:13:19.627Z,16.98
2023-03-06T13:16:29.124Z,17.10
2023-03-06T13:19:03.710Z,17.65
2023-03-06T13:24:22.861Z,18.55
2023-03-06T13:27:01.041Z,20.50
2023-03-06T13:29:36.754Z,20.60
2023-03-06T13:32:15.010Z,22.35
2023-03-06T13:34:53.780Z,24.23
2023-03-06T13:37:37.094Z,23.55
2023-03-06T13:40:03.839Z,21.92
2023-03-06T13:42:43.427Z,19.88
2023-03-06T13:45:41.809Z,21.60
2023-03-06T13:48:43.160Z,18.85
2023-03-06T13:51:24.270Z,20.50
2023-03-06T13:54:24.392Z,19.58
2023-03-06T13:57:05.825Z,19.40
2023-03-06T14:00:09.562Z,20.10
2023-03-06T14:03:03.606Z,18.80
2023-03-06T14:05:51.443Z,21.85
2023-03-06T14:08:24.471Z,19.70
2023-03-06T14:11:09.138Z,19.35
2023-03-06T14:13:47.488Z,18.17
2023-03-06T14:16:21.791Z,18.05
2023-03-06T14:18:53.280Z,18.00
2023-03-06T14:21:44.389Z,19.90
2023-03-06T14:24:19.635Z,20.08
2023-03-06T14:26:50.098Z,19.30
2023-03-06T14:29:28.320Z,17.45
2023-03-06T14:32:04.592Z,16.77
2023-03-06T14:34:41.020Z,16.60
2023-03-06T14:37:20.400Z,16.33
2023-03-06T14:39:58.544Z,14.55
2023-03-06T14:42:29.373Z,14.77
2023-03-06T14:45:06.978Z,14.50
2023-03-06T14:47:36.806Z,14.40
2023-03-06T14:50:30.338Z,15.05
2023-03-06T14:53:05.541Z,14.50
2023-03-06T14:55:36.756Z,13.88
2023-03-06T14:58:10.021Z,15.75
2023-03-06T15:00:50.178Z,15.00
2023-03-06T15:03:27.681Z,14.85
2023-03-06T15:05:54.913Z,14.27
2023-03-06T15:08:27.465Z,15.40
2023-03-06T15:11:02.990Z,15.73
2023-03-06T15:13:33.530Z,15.63
2023-03-06T15:16:06.554Z,16.48
2023-03-06T15:18:56.918Z,16.08
2023-03-06T15:21:28.622Z,15.88
2023-03-06T15:24:00.364Z,15.05
2023-03-06T15:26:40.992Z,13.73
2023-03-06T15:29:10.749Z,14.63
2023-03-06T15:31:44.535Z,15.75
2023-03-06T15:34:23.288Z,13.95
2023-03-06T15:36:59.585Z,15.10
2023-03-06T15:39:36.082Z,24.98
2023-03-06T15:42:22.582Z,20.08
2023-03-06T15:44:56.194Z,16.65
2023-03-06T15:47:27.613Z,15.80
2023-03-06T15:49:58.802Z,17.27
2023-03-06T15:52:27.669Z,16.73
2023-03-06T15:54:59.753Z,16.27
2023-03-06T15:57:30.520Z,17.38
2023-03-06T16:00:01.822Z,16.52
2023-03-06T16:02:38.042Z,16.13
2023-03-06T16:05:14.526Z,16.58
2023-03-06T16:07:41.161Z,15.88
2023-03-06T16:10:13.511Z,16.08
2023-03-06T16:13:02.868Z,16.95
2023-03-06T16:15:32.925Z,17.35
2023-03-06T16:18:02.212Z,17.45
2023-03-06T16:20:30.258Z,18.05
2023-03-06T16:22:57.029Z,17.17
2023-03-06T16:25:26.278Z,16.55
2023-03-06T16:28:00.979Z,15.07
2023-03-06T16:30:32.911Z,16.38
2023-03-06T16:33:05.320Z,17.85
2023-03-06T16:35:37.362Z,17.25
2023-03-06T16:38:04.371Z,16.95
2023-03-06T16:40:42.837Z,18.95
2023-03-06T16:43:17.372Z,17.30
2023-03-06T16:45:44.569Z,18.75
2023-03-06T16:48:15.632Z,19.13
2023-03-06T16:50:42.374Z,20.02
2023-03-06T16:53:13.528Z,19.85
2023-03-06T16:55:40.091Z,20.27
2023-03-06T16:58:10.045Z,18.98
2023-03-06T17:00:36.878Z,17.95
2023-03-06T17:03:03.825Z,19.73
2023-03-06T17:05:35.408Z,17.90
2023-03-06T17:08:05.796Z,18.47
2023-03-06T17:10:32.459Z,17.50
2023-03-06T17:12:59.185Z,17.65
2023-03-06T17:15:26.317Z,18.40
2023-03-06T17:17:53.168Z,18.48
2023-03-06T17:20:26.670Z,18.45
2023-03-06T17:22:55.867Z,19.45
2023-03-06T17:25:22.845Z,20.15
2023-03-06T17:27:58.285Z,19.63
2023-03-06T17:30:27.322Z,20.00
2023-03-06T17:32:56.840Z,20.55
2023-03-06T17:35:23.426Z,20.95
2023-03-06T17:37:51.250Z,20.63
2023-03-06T17:40:20.037Z,20.75
2023-03-06T17:42:46.618Z,21.58
2023-03-06T17:45:16.081Z,20.60
2023-03-06T17:47:55.418Z,19.98
2023-03-06T17:50:25.165Z,20.23
2023-03-06T17:52:54.098Z,17.20
2023-03-06T17:55:24.254Z,18.13
2023-03-06T17:57:59.479Z,18.77
2023-03-06T18:00:26.160Z,18.60
2023-03-06T18:02:58.699Z,18.35
2023-03-06T18:05:28.896Z,17.75
2023-03-06T18:07:58.168Z,18.80
2023-03-06T18:10:27.365Z,18.20
2023-03-06T18:12:58.876Z,18.45
2023-03-06T18:15:33.423Z,18.40
2023-03-06T18:18:00.128Z,18.45
2023-03-06T18:20:33.984Z,18.15
2023-03-06T18:23:03.416Z,17.55
2023-03-06T18:25:31.282Z,19.25
2023-03-06T18:28:02.123Z,19.60
2023-03-06T18:30:29.066Z,19.10
2023-03-06T18:33:00.500Z,19.00
2023-03-06T18:35:35.986Z,18.55
2023-03-06T18:38:04.457Z,18.17
2023-03-06T18:40:33.477Z,19.67
2023-03-06T18:43:00.025Z,18.92
2023-03-06T18:45:28.712Z,19.15
2023-03-06T18:48:00.546Z,19.40
2023-03-06T18:50:27.108Z,18.60
2023-03-06T18:52:53.692Z,17.77
2023-03-06T18:55:20.242Z,18.38
2023-03-06T18:57:46.770Z,19.75
2023-03-06T19:00:19.150Z,18.55
2023-03-06T19:02:47.969Z,18.70
2023-03-06T19:05:14.799Z,17.40
2023-03-06T19:07:41.350Z,17.30
2023-03-06T19:10:10.538Z,17.92
2023-03-06T19:12:39.403Z,17.50
2023-03-06T19:15:09.398Z,19.52
2023-03-06T19:17:40.997Z,18.15
2023-03-06T19:20:10.363Z,12.95
2023-03-06T19:22:37.132Z,17.90
2023-03-06T19:25:10.760Z,17.85
2023-03-06T19:27:38.965Z,17.45
2023-03-06T19:30:10.791Z,16.83
2023-03-06T19:32:37.664Z,16.85
2023-03-06T19:35:06.765Z,19.92
2023-03-06T19:37:37.086Z,18.27
2023-03-06T19:40:07.001Z,18.10
2023-03-06T19:42:34.547Z,17.80
2023-03-06T19:45:01.219Z,17.38
2023-03-06T19:47:33.176Z,16.55
2023-03-06T19:50:02.237Z,17.85
2023-03-06T19:52:28.802Z,16.25
2023-03-06T19:54:57.819Z,17.65
2023-03-06T19:57:28.252Z,15.82
2023-03-06T19:59:56.057Z,16.17
2023-03-06T20:02:26.446Z,16.95
2023-03-06T20:04:57.007Z,16.27
2023-03-06T20:07:24.030Z,15.70
2023-03-06T20:09:51.016Z,17.10
2023-03-06T20:12:17.726Z,15.82
2023-03-06T20:14:46.005Z,16.45
2023-03-06T20:17:15.158Z,16.55
2023-03-06T20:19:46.017Z,17.25
2023-03-06T20:22:15.087Z,15.25
2023-03-06T20:24:41.706Z,16.38
2023-03-06T20:27:08.296Z,15.90
2023-03-06T20:29:35.829Z,16.75
2023-03-06T20:32:05.499Z,17.58
2023-03-06T20:34:32.067Z,16.23
2023-03-06T20:36:58.761Z,16.30
2023-03-06T20:39:29.462Z,15.60
2023-03-06T20:41:56.092Z,16.67
2023-03-06T20:44:23.012Z,17.33
2023-03-06T20:46:51.807Z,17.83
2023-03-06T20:49:21.577Z,16.55
2023-03-06T20:51:51.131Z,18.95
2023-03-06T20:54:17.845Z,17.52
2023-03-06T20:56:47.991Z,17.80
2023-03-06T20:59:17.315Z,18.10
2023-03-06T21:01:45.557Z,17.45
2023-03-06T21:04:14.818Z,17.55
2023-03-06T21:06:45.188Z,17.60
2023-03-06T21:09:13.505Z,17.73
2023-03-06T21:11:40.722Z,18.15
2023-03-06T21:14:13.408Z,16.65
2023-03-06T21:16:43.623Z,17.40
2023-03-06T21:19:10.669Z,17.63
2023-03-06T21:21:37.317Z,17.52
2023-03-06T21:24:05.303Z,18.35
2023-03-06T21:26:36.448Z,17.38
2023-03-06T21:29:06.256Z,17.55
2023-03-06T21:31:35.868Z,16.90
2023-03-06T21:34:06.157Z,18.17
2023-03-06T21:36:33.002Z,17.35
2023-03-06T21:39:05.993Z,15.52
2023-03-06T21:41:34.426Z,16.05
2023-03-06T21:44:06.022Z,17.48
2023-03-06T21:46:36.203Z,17.58
2023-03-06T21:49:04.776Z,16.50
2023-03-06T21:51:31.519Z,15.73
2023-03-06T21:53:58.854Z,15.65
2023-03-06T21:56:27.821Z,17.50
2023-03-06T21:58:55.262Z,16.85
2023-03-06T22:01:30.594Z,16.92
2023-03-06T22:03:58.355Z,14.82
2023-03-06T22:06:28.746Z,15.60
2023-03-06T22:08:59.710Z,14.18
2023-03-06T22:11:29.601Z,14.52
2023-03-06T22:13:58.847Z,14.88
2023-03-06T22:16:29.413Z,13.90
2023-03-06T22:18:58.850Z,14.63
2023-03-06T22:21:28.843Z,13.85
2023-03-06T22:23:57.580Z,12.07
2023-03-06T22:26:29.314Z,11.95
2023-03-06T22:29:02.720Z,12.70
2023-03-06T22:31:29.431Z,11.90
2023-03-06T22:34:00.340Z,11.48
2023-03-06T22:36:31.505Z,11.52
2023-03-06T22:39:02.303Z,10.80
2023-03-06T22:41:34.448Z,12.05
2023-03-06T22:44:04.848Z,10.75
2023-03-06T22:46:33.779Z,10.68
2023-03-06T22:49:01.135Z,10.88
2023-03-06T22:51:33.412Z,9.65
2023-03-06T22:56:27.796Z,9.23
2023-03-06T22:58:54.440Z,10.90
2023-03-06T23:01:28.691Z,9.75
2023-03-06T23:03:57.947Z,9.10
2023-03-06T23:06:26.720Z,9.45
2023-03-06T23:08:59.709Z,9.23
2023-03-06T23:11:30.499Z,9.60
2023-03-06T23:14:19.652Z,9.30
2023-03-06T23:17:06.372Z,9.38
2023-03-06T23:19:56.471Z,9.30
2023-03-06T23:22:49.053Z,9.30
2023-03-06T23:25:34.679Z,8.55
2023-03-06T23:28:01.690Z,8.60
2023-03-06T23:30:30.630Z,9.10
2023-03-06T23:33:00.225Z,9.03
2023-03-06T23:35:30.900Z,8.00
2023-03-06T23:37:57.547Z,8.90
2023-03-06T23:40:26.906Z,8.43
2023-03-06T23:43:07.004Z,7.55
2023-03-06T23:45:33.722Z,8.20
2023-03-06T23:48:00.267Z,8.32
2023-03-06T23:50:29.115Z,7.60
2023-03-06T23:53:01.136Z,7.32
2023-03-06T23:55:27.767Z,7.70
2023-03-06T23:58:01.087Z,7.18
